createdAt,value
2023-01-11T00:00:27.472Z,1.04
2023-01-11T00:01:27.557Z,1.04
2023-01-11T00:02:27.745Z,1.04
2023-01-11T00:03:27.760Z,1.04
2023-01-11T00:04:27.954Z,1.04
2023-01-11T00:05:28.025Z,1.04
2023-01-11T00:06:28.229Z,1.04
2023-01-11T00:07:28.257Z,1.04
2023-01-11T00:08:28.428Z,1.04
2023-01-11T00:09:28.582Z,1.04
2023-01-11T00:10:28.728Z,1.04
2023-01-11T00:11:28.826Z,1.04
2023-01-11T00:12:28.931Z,1.04
2023-01-11T00:13:29.043Z,1.04
2023-01-11T00:14:29.180Z,1.04
2023-01-11T00:15:29.289Z,1.04
2023-01-11T00:16:29.468Z,1.04
2023-01-11T00:17:29.531Z,1.04
2023-01-11T00:18:29.640Z,1.04
2023-01-11T00:19:29.731Z,1.04
2023-01-11T00:20:29.894Z,1.04
2023-01-11T00:21:30.033Z,1.04
2023-01-11T00:22:30.196Z,1.04
2023-01-11T00:23:30.293Z,1.04
2023-01-11T00:24:30.441Z,1.04
2023-01-11T00:25:30.594Z,1.04
2023-01-11T00:26:30.756Z,1.04
2023-01-11T00:27:30.905Z,1.04
2023-01-11T00:28:31.005Z,1.04
2023-01-11T00:29:31.104Z,1.04
2023-01-11T00:30:31.203Z,1.04
2023-01-11T00:31:31.322Z,1.04
2023-01-11T00:32:31.460Z,1.04
2023-01-11T00:33:31.587Z,1.04
2023-01-11T00:34:31.711Z,1.04
2023-01-11T00:35:31.799Z,1.04
2023-01-11T00:36:31.918Z,1.04
2023-01-11T00:37:32.066Z,1.04
2023-01-11T00:38:32.160Z,1.04
2023-01-11T00:39:32.275Z,1.04
2023-01-11T00:40:32.416Z,1.04
2023-01-11T00:41:32.523Z,1.04
2023-01-11T00:42:32.673Z,1.04
2023-01-11T00:43:32.791Z,1.04
2023-01-11T00:44:32.918Z,1.04
2023-01-11T00:45:33.028Z,1.04
2023-01-11T00:46:33.174Z,1.04
2023-01-11T00:47:33.324Z,1.04
2023-01-11T00:48:33.472Z,1.04
2023-01-11T00:49:33.625Z,1.04
2023-01-11T00:50:33.731Z,1.04
2023-01-11T00:51:33.875Z,1.04
2023-01-11T00:52:33.995Z,1.04
2023-01-11T00:53:34.087Z,1.04
2023-01-11T00:54:34.247Z,1.04
2023-01-11T00:55:34.356Z,1.04
2023-01-11T00:56:34.493Z,1.04
2023-01-11T00:57:34.595Z,1.04
2023-01-11T00:58:34.746Z,1.04
2023-01-11T00:59:34.847Z,1.04
2023-01-11T01:00:34.937Z,1.04
2023-01-11T01:01:35.146Z,1.04
2023-01-11T01:02:35.257Z,1.04
2023-01-11T01:03:35.301Z,1.04
2023-01-11T01:04:35.458Z,1.04
2023-01-11T01:05:35.549Z,1.04
2023-01-11T01:06:35.678Z,1.04
2023-01-11T01:07:35.817Z,1.04
2023-01-11T01:08:35.977Z,1.04
2023-01-11T01:09:36.087Z,1.04
2023-01-11T01:10:36.202Z,1.04
2023-01-11T01:11:36.311Z,1.04
2023-01-11T01:12:36.461Z,1.04
2023-01-11T01:13:36.629Z,1.04
2023-01-11T01:14:36.757Z,1.04
2023-01-11T01:15:36.929Z,1.04
2023-01-11T01:16:37.021Z,1.04
2023-01-11T01:17:37.114Z,1.04
2023-01-11T01:18:37.226Z,1.04
2023-01-11T01:19:37.375Z,1.04
2023-01-11T01:20:37.485Z,1.04
2023-01-11T01:21:37.628Z,1.04
2023-01-11T01:22:37.731Z,1.04
2023-01-11T01:23:37.832Z,1.04
2023-01-11T01:24:37.935Z,1.04
2023-01-11T01:25:38.052Z,1.04
2023-01-11T01:26:38.139Z,1.04
2023-01-11T01:27:38.297Z,1.04
2023-01-11T01:28:38.413Z,1.04
2023-01-11T01:29:38.537Z,1.04
2023-01-11T01:30:38.683Z,1.04
2023-01-11T01:31:38.803Z,1.04
2023-01-11T01:32:38.939Z,1.04
2023-01-11T01:33:39.053Z,1.04
2023-01-11T01:34:39.142Z,1.04
2023-01-11T01:35:39.299Z,1.04
2023-01-11T01:36:39.410Z,1.04
2023-01-11T01:37:39.501Z,1.04
2023-01-11T01:38:39.598Z,1.04
2023-01-11T01:39:39.704Z,1.04
2023-01-11T01:40:39.796Z,1.04
2023-01-11T01:41:39.926Z,1.04
2023-01-11T01:42:40.012Z,1.04
2023-01-11T01:43:40.105Z,1.04
2023-01-11T01:44:40.276Z,1.04
2023-01-11T01:45:40.410Z,1.04
2023-01-11T01:46:40.634Z,1.04
2023-01-11T01:47:40.686Z,1.04
2023-01-11T01:48:40.793Z,1.04
2023-01-11T01:49:40.920Z,1.04
2023-01-11T01:50:41.106Z,1.04
2023-01-11T01:51:41.247Z,1.04
2023-01-11T01:52:41.424Z,1.04
2023-01-11T01:53:41.536Z,1.04
2023-01-11T01:54:41.678Z,1.04
2023-01-11T01:55:41.783Z,1.04
2023-01-11T01:56:41.870Z,1.04
2023-01-11T01:57:41.981Z,1.04
2023-01-11T01:58:42.074Z,1.04
2023-01-11T01:59:42.235Z,1.04
2023-01-11T02:00:42.385Z,1.04
2023-01-11T02:01:42.518Z,1.04
2023-01-11T02:02:42.704Z,1.04
2023-01-11T02:03:42.738Z,1.04
2023-01-11T02:04:42.889Z,1.04
2023-01-11T02:05:43.039Z,1.04
2023-01-11T02:06:43.239Z,1.04
2023-01-11T02:07:43.294Z,1.04
2023-01-11T02:08:43.404Z,1.04
2023-01-11T02:09:43.557Z,1.04
2023-01-11T02:10:43.705Z,1.04
2023-01-11T02:11:43.850Z,1.04
2023-01-11T02:12:43.950Z,1.04
2023-01-11T02:13:44.053Z,1.04
2023-01-11T02:14:44.205Z,1.04
2023-01-11T02:15:44.403Z,1.04
2023-01-11T02:16:44.454Z,1.04
2023-01-11T02:17:44.575Z,1.04
2023-01-11T02:18:44.663Z,1.04
2023-01-11T02:19:44.762Z,1.04
2023-01-11T02:20:44.863Z,1.04
2023-01-11T02:21:44.960Z,1.04
2023-01-11T02:22:45.116Z,1.04
2023-01-11T02:23:45.214Z,1.04
2023-01-11T02:24:45.326Z,1.04
2023-01-11T02:25:45.475Z,1.04
2023-01-11T02:26:45.570Z,1.04
2023-01-11T02:27:45.729Z,1.04
2023-01-11T02:28:45.872Z,1.04
2023-01-11T02:29:45.976Z,1.04
2023-01-11T02:30:46.145Z,1.04
2023-01-11T02:31:46.222Z,1.04
2023-01-11T02:32:46.334Z,1.04
2023-01-11T02:33:46.486Z,1.04
2023-01-11T02:34:46.578Z,1.04
2023-01-11T02:35:46.687Z,1.04
2023-01-11T02:36:46.787Z,1.04
2023-01-11T02:37:46.900Z,1.04
2023-01-11T02:38:47.044Z,1.04
2023-01-11T02:39:47.137Z,1.04
2023-01-11T02:40:47.243Z,1.04
2023-01-11T02:41:47.394Z,1.04
2023-01-11T02:42:47.543Z,1.04
2023-01-11T02:43:47.644Z,1.04
2023-01-11T02:44:47.743Z,1.04
2023-01-11T02:45:47.848Z,1.04
2023-01-11T02:46:48.024Z,1.04
2023-01-11T02:47:48.065Z,1.04
2023-01-11T02:48:48.170Z,1.04
2023-01-11T02:49:48.331Z,1.04
2023-01-11T02:50:48.481Z,1.04
2023-01-11T02:51:48.614Z,1.04
2023-01-11T02:52:48.737Z,1.04
2023-01-11T02:53:48.905Z,1.04
2023-01-11T02:54:49.066Z,1.04
2023-01-11T02:55:49.201Z,1.04
2023-01-11T02:56:49.370Z,1.04
2023-01-11T02:57:49.462Z,1.04
2023-01-11T02:58:49.633Z,1.04
2023-01-11T02:59:49.778Z,1.04
2023-01-11T03:00:49.863Z,1.04
2023-01-11T03:01:50.072Z,1.04
2023-01-11T03:02:50.206Z,1.04
2023-01-11T03:03:50.226Z,1.04
2023-01-11T03:04:50.328Z,1.04
2023-01-11T03:05:50.459Z,1.04
2023-01-11T03:06:50.634Z,1.04
2023-01-11T03:07:50.707Z,1.04
2023-01-11T03:08:50.865Z,1.04
2023-01-11T03:09:50.945Z,1.04
2023-01-11T03:10:51.036Z,1.04
2023-01-11T03:11:51.134Z,1.04
2023-01-11T03:12:51.246Z,1.04
2023-01-11T03:13:51.355Z,1.04
2023-01-11T03:14:51.440Z,1.04
2023-01-11T03:15:51.614Z,1.04
2023-01-11T03:16:51.698Z,1.04
2023-01-11T03:17:51.795Z,1.04
2023-01-11T03:18:51.895Z,1.04
2023-01-11T03:19:52.006Z,1.04
2023-01-11T03:20:52.140Z,1.04
2023-01-11T03:21:52.253Z,1.04
2023-01-11T03:22:52.353Z,1.04
2023-01-11T03:23:52.450Z,1.04
2023-01-11T03:24:52.557Z,1.04
2023-01-11T03:25:52.705Z,1.04
2023-01-11T03:26:52.861Z,1.04
2023-01-11T03:27:53.011Z,1.04
2023-01-11T03:28:53.118Z,1.04
2023-01-11T03:29:53.264Z,1.04
2023-01-11T03:30:53.411Z,1.04
2023-01-11T03:31:53.568Z,1.04
2023-01-11T03:32:53.667Z,1.04
2023-01-11T03:33:53.769Z,1.04
2023-01-11T03:34:53.879Z,1.04
2023-01-11T03:35:54.023Z,1.04
2023-01-11T03:36:54.176Z,1.04
2023-01-11T03:37:54.271Z,1.04
2023-01-11T03:38:54.383Z,1.04
2023-01-11T03:39:54.485Z,1.04
2023-01-11T03:40:54.629Z,1.04
2023-01-11T03:41:54.739Z,1.04
2023-01-11T03:42:54.875Z,1.04
2023-01-11T03:43:54.990Z,1.04
2023-01-11T03:44:55.078Z,1.04
2023-01-11T03:45:55.235Z,1.04
2023-01-11T03:46:55.361Z,1.04
2023-01-11T03:47:55.495Z,1.04
2023-01-11T03:48:55.591Z,1.04
2023-01-11T03:49:55.709Z,1.04
2023-01-11T03:50:55.845Z,1.04
2023-01-11T03:51:55.997Z,1.04
2023-01-11T03:52:56.101Z,1.04
2023-01-11T03:53:56.216Z,1.04
2023-01-11T03:54:56.354Z,1.04
2023-01-11T03:55:56.441Z,1.04
2023-01-11T03:56:56.544Z,1.04
2023-01-11T03:57:56.700Z,1.04
2023-01-11T03:58:56.801Z,1.04
2023-01-11T03:59:56.915Z,1.04
2023-01-11T04:00:57.103Z,1.04
2023-01-11T04:01:57.162Z,1.04
2023-01-11T04:02:57.304Z,1.04
2023-01-11T04:03:57.499Z,1.04
2023-01-11T04:04:57.613Z,1.04
2023-01-11T04:05:57.767Z,1.04
2023-01-11T04:06:57.892Z,1.04
2023-01-11T04:07:57.985Z,1.04
2023-01-11T04:08:58.122Z,1.04
2023-01-11T04:09:58.230Z,1.04
2023-01-11T04:10:58.356Z,1.04
2023-01-11T04:11:58.491Z,1.04
2023-01-11T04:12:58.592Z,1.04
2023-01-11T04:13:58.681Z,1.04
2023-01-11T04:14:58.785Z,1.04
2023-01-11T04:15:58.925Z,1.04
2023-01-11T04:16:58.987Z,1.04
2023-01-11T04:17:59.083Z,1.04
2023-01-11T04:18:59.234Z,1.04
2023-01-11T04:19:59.386Z,1.04
2023-01-11T04:20:59.531Z,1.04
2023-01-11T04:21:59.662Z,1.04
2023-01-11T04:22:59.769Z,1.04
2023-01-11T04:23:59.897Z,1.04
2023-01-11T04:24:59.990Z,1.04
2023-01-11T04:26:00.163Z,1.04
2023-01-11T04:27:00.306Z,1.04
2023-01-11T04:28:00.448Z,1.04
2023-01-11T04:29:00.567Z,1.04
2023-01-11T04:30:00.665Z,1.04
2023-01-11T04:31:00.780Z,1.04
2023-01-11T04:32:00.905Z,1.04
2023-01-11T04:33:01.090Z,1.04
2023-01-11T04:34:01.214Z,1.04
2023-01-11T04:35:01.362Z,1.04
2023-01-11T04:36:01.460Z,1.04
2023-01-11T04:37:01.563Z,1.04
2023-01-11T04:38:01.715Z,1.04
2023-01-11T04:39:01.866Z,1.04
2023-01-11T04:40:02.031Z,1.04
2023-01-11T04:41:02.171Z,1.04
2023-01-11T04:42:02.264Z,1.04
2023-01-11T04:43:02.496Z,1.04
2023-01-11T04:44:02.524Z,1.04
2023-01-11T04:45:02.652Z,1.04
2023-01-11T04:46:02.808Z,1.04
2023-01-11T04:47:02.921Z,1.04
2023-01-11T04:48:03.027Z,1.04
2023-01-11T04:49:03.134Z,1.04
2023-01-11T04:50:03.231Z,1.04
2023-01-11T04:51:03.329Z,1.04
2023-01-11T04:52:03.483Z,1.04
2023-01-11T04:53:03.583Z,1.04
2023-01-11T04:54:03.731Z,1.04
2023-01-11T04:55:03.836Z,1.04
2023-01-11T04:56:03.984Z,1.04
2023-01-11T04:57:04.097Z,1.04
2023-01-11T04:58:04.263Z,1.04
2023-01-11T04:59:04.408Z,1.04
2023-01-11T05:00:04.503Z,1.04
2023-01-11T05:01:04.707Z,1.04
2023-01-11T05:02:04.747Z,1.04
2023-01-11T05:03:04.894Z,1.04
2023-01-11T05:04:05.032Z,1.04
2023-01-11T05:05:05.105Z,1.04
2023-01-11T05:06:05.216Z,1.04
2023-01-11T05:07:05.308Z,1.04
2023-01-11T05:08:05.417Z,1.04
2023-01-11T05:09:05.560Z,1.04
2023-01-11T05:10:05.738Z,1.04
2023-01-11T05:11:05.862Z,1.04
2023-01-11T05:12:05.967Z,1.04
2023-01-11T05:13:06.068Z,1.04
2023-01-11T05:14:06.211Z,1.04
2023-01-11T05:15:06.316Z,1.04
2023-01-11T05:16:06.458Z,1.04
2023-01-11T05:17:06.544Z,1.04
2023-01-11T05:18:06.691Z,1.04
2023-01-11T05:19:06.779Z,1.04
2023-01-11T05:20:06.917Z,1.04
2023-01-11T05:21:07.084Z,1.04
2023-01-11T05:22:07.172Z,1.04
2023-01-11T05:23:07.338Z,1.04
2023-01-11T05:24:07.439Z,1.04
2023-01-11T05:25:07.583Z,1.04
2023-01-11T05:26:07.718Z,1.04
2023-01-11T05:27:07.848Z,1.04
2023-01-11T05:28:07.991Z,1.04
2023-01-11T05:29:08.155Z,1.04
2023-01-11T05:30:08.244Z,1.04
2023-01-11T05:31:08.338Z,1.04
2023-01-11T05:32:08.492Z,1.04
2023-01-11T05:33:08.642Z,1.04
2023-01-11T05:34:08.742Z,1.04
2023-01-11T05:35:08.844Z,1.04
2023-01-11T05:36:08.950Z,1.04
2023-01-11T05:37:09.098Z,1.04
2023-01-11T05:38:09.242Z,1.04
2023-01-11T05:39:09.355Z,1.04
2023-01-11T05:40:09.460Z,1.04
2023-01-11T05:41:09.610Z,1.04
2023-01-11T05:42:09.716Z,1.04
2023-01-11T05:43:09.863Z,1.04
2023-01-11T05:44:10.014Z,1.04
2023-01-11T05:45:10.160Z,1.04
2023-01-11T05:46:10.324Z,1.04
2023-01-11T05:47:10.470Z,1.04
2023-01-11T05:48:10.571Z,1.04
2023-01-11T05:49:10.668Z,1.04
2023-01-11T05:50:10.819Z,1.04
2023-01-11T05:51:10.966Z,1.04
2023-01-11T05:52:11.115Z,1.04
2023-01-11T05:53:11.284Z,1.04
2023-01-11T05:54:11.371Z,1.04
2023-01-11T05:55:11.482Z,1.04
2023-01-11T05:56:11.584Z,1.04
2023-01-11T05:57:11.724Z,1.04
2023-01-11T05:58:11.827Z,1.04
2023-01-11T05:59:11.936Z,1.04
2023-01-11T06:00:12.034Z,1.04
2023-01-11T06:01:12.187Z,1.04
2023-01-11T06:02:12.365Z,1.04
2023-01-11T06:03:12.481Z,1.04
2023-01-11T06:04:12.553Z,1.04
2023-01-11T06:05:12.683Z,1.04
2023-01-11T06:06:12.839Z,1.04
2023-01-11T06:07:13.007Z,1.04
2023-01-11T06:08:13.097Z,1.04
2023-01-11T06:09:13.262Z,1.04
2023-01-11T06:10:13.402Z,1.04
2023-01-11T06:11:13.492Z,1.04
2023-01-11T06:12:13.588Z,1.04
2023-01-11T06:13:13.691Z,1.04
2023-01-11T06:14:13.837Z,1.04
2023-01-11T06:15:13.999Z,1.04
2023-01-11T06:16:14.185Z,1.04
2023-01-11T06:17:14.303Z,1.04
2023-01-11T06:18:14.416Z,1.04
2023-01-11T06:19:14.507Z,1.04
2023-01-11T06:20:14.610Z,1.04
2023-01-11T06:21:14.719Z,1.04
2023-01-11T06:22:14.867Z,1.04
2023-01-11T06:23:14.966Z,1.04
2023-01-11T06:24:15.103Z,1.04
2023-01-11T06:25:15.167Z,1.04
2023-01-11T06:26:15.331Z,2
2023-01-11T06:27:15.474Z,2
2023-01-11T06:28:15.627Z,2
2023-01-11T06:29:15.781Z,2
2023-01-11T06:30:15.888Z,3.04
2023-01-11T06:31:17.526Z,3.04
2023-01-11T06:32:16.124Z,3.04
2023-01-11T06:33:16.229Z,4
2023-01-11T06:34:16.332Z,5.04
2023-01-11T06:35:16.479Z,6
2023-01-11T06:36:16.656Z,7.04
2023-01-11T06:37:16.800Z,8
2023-01-11T06:38:16.887Z,9.04
2023-01-11T06:39:16.986Z,10
2023-01-11T06:40:17.145Z,12
2023-01-11T06:41:17.263Z,14
2023-01-11T06:42:17.399Z,16
2023-01-11T06:43:17.491Z,18
2023-01-11T06:44:17.659Z,19.04
2023-01-11T06:45:17.807Z,20
2023-01-11T06:46:17.950Z,22
2023-01-11T06:47:18.096Z,25.04
2023-01-11T06:48:18.206Z,29.04
2023-01-11T06:49:18.302Z,33.04
2023-01-11T06:50:18.407Z,39.04
2023-01-11T06:51:18.559Z,44
2023-01-11T06:52:18.661Z,52
2023-01-11T06:53:18.773Z,60
2023-01-11T06:54:18.863Z,69.04
2023-01-11T06:55:19.013Z,83.04
2023-01-11T06:56:19.226Z,100
2023-01-11T06:57:19.209Z,118
2023-01-11T06:58:19.372Z,133.04
2023-01-11T06:59:19.458Z,154
2023-01-11T07:00:19.556Z,190.08
2023-01-11T07:01:19.771Z,218.08
2023-01-11T07:02:19.878Z,242.08
2023-01-11T07:03:19.977Z,272
2023-01-11T07:04:20.071Z,298.08
2023-01-11T07:05:20.269Z,320
2023-01-11T07:06:20.389Z,341.12
2023-01-11T07:07:20.477Z,353.28
2023-01-11T07:08:20.603Z,367.04
2023-01-11T07:09:20.680Z,369.28
2023-01-11T07:10:20.780Z,358.08
2023-01-11T07:11:20.981Z,358.08
2023-01-11T07:12:21.038Z,373.12
2023-01-11T07:13:21.138Z,399.04
2023-01-11T07:14:21.289Z,436.16
2023-01-11T07:15:21.398Z,459.2
2023-01-11T07:16:21.588Z,491.2
2023-01-11T07:17:21.595Z,513.28
2023-01-11T07:18:21.744Z,541.12
2023-01-11T07:19:21.896Z,578.24
2023-01-11T07:20:21.995Z,607.04
2023-01-11T07:21:22.150Z,643.2
2023-01-11T07:22:22.299Z,693.12
2023-01-11T07:23:22.459Z,763.52
2023-01-11T07:24:22.614Z,807.04
2023-01-11T07:25:22.720Z,859.52
2023-01-11T07:26:22.849Z,904.32
2023-01-11T07:27:22.915Z,929.28
2023-01-11T07:28:23.033Z,965.12
2023-01-11T07:29:23.115Z,1020.16
2023-01-11T07:30:23.213Z,1078.4
2023-01-11T07:31:23.359Z,1125.12
2023-01-11T07:32:23.416Z,1164.16
2023-01-11T07:33:23.580Z,1186.56
2023-01-11T07:34:23.692Z,1201.28
2023-01-11T07:35:23.821Z,1223.04
2023-01-11T07:36:23.923Z,1259.52
2023-01-11T07:37:28.727Z,1400.32
2023-01-11T07:38:24.236Z,1475.84
2023-01-11T07:39:31.888Z,1547.52
2023-01-11T07:40:24.425Z,1579.52
2023-01-11T07:41:24.573Z,1623.04
2023-01-11T07:42:24.686Z,1675.52
2023-01-11T07:43:24.795Z,1720.32
2023-01-11T07:44:24.937Z,1783.04
2023-01-11T07:45:29.196Z,1862.4
2023-01-11T07:46:25.277Z,1932.8
2023-01-11T07:47:25.354Z,1978.88
2023-01-11T07:48:25.629Z,2022.4
2023-01-11T07:49:25.539Z,2048
2023-01-11T07:50:25.693Z,2032.64
2023-01-11T07:51:25.783Z,2024.96
2023-01-11T07:52:25.897Z,2032.64
2023-01-11T07:53:26.151Z,2028.8
2023-01-11T07:54:26.105Z,2016
2023-01-11T07:55:26.258Z,1990.4
2023-01-11T07:56:26.401Z,1978.88
2023-01-11T07:57:26.557Z,2024.96
2023-01-11T07:58:26.671Z,2035.2
2023-01-11T07:59:26.812Z,2016
2023-01-11T08:00:26.964Z,1990.4
2023-01-11T08:01:27.115Z,1981.44
2023-01-11T08:02:27.355Z,1973.76
2023-01-11T08:03:27.393Z,1955.84
2023-01-11T08:04:27.464Z,1944.32
2023-01-11T08:05:27.575Z,1943.04
2023-01-11T08:06:27.669Z,1954.56
2023-01-11T08:07:27.814Z,1952
2023-01-11T08:08:27.984Z,1943.04
2023-01-11T08:09:28.124Z,1981.44
2023-01-11T08:10:28.230Z,2053.12
2023-01-11T08:11:28.317Z,2119.68
2023-01-11T08:12:28.433Z,2119.68
2023-01-11T08:13:28.578Z,2069.76
2023-01-11T08:14:28.683Z,2026.24
2023-01-11T08:15:28.837Z,1975.04
2023-01-11T08:16:28.947Z,1940.48
2023-01-11T08:17:29.088Z,1966.08
2023-01-11T08:18:29.193Z,2013.44
2023-01-11T08:19:29.330Z,2010.88
2023-01-11T08:20:29.436Z,1982.72
2023-01-11T08:21:29.541Z,1962.24
2023-01-11T08:22:29.687Z,1957.12
2023-01-11T08:23:29.800Z,1995.52
2023-01-11T08:24:29.899Z,2053.12
2023-01-11T08:25:30.048Z,2090.24
2023-01-11T08:26:30.168Z,2108.16
2023-01-11T08:27:30.249Z,2182.4
2023-01-11T08:28:30.394Z,2292.48
2023-01-11T08:29:30.508Z,2434.56
2023-01-11T08:30:30.629Z,2503.68
2023-01-11T08:31:30.694Z,2476.8
2023-01-11T08:32:30.812Z,2388.48
2023-01-11T08:33:30.950Z,2341.12
2023-01-11T08:34:32.512Z,2446.08
2023-01-11T08:35:31.214Z,2624
2023-01-11T08:36:31.306Z,2769.92
2023-01-11T08:37:31.415Z,2772.48
2023-01-11T08:38:31.513Z,2688
2023-01-11T08:39:31.671Z,2695.68
2023-01-11T08:40:31.820Z,2749.44
2023-01-11T08:41:31.927Z,2767.36
2023-01-11T08:42:32.075Z,2762.24
2023-01-11T08:43:32.241Z,2841.6
2023-01-11T08:44:34.763Z,3059.2
2023-01-11T08:45:32.491Z,3269.12
2023-01-11T08:46:32.597Z,3381.76
2023-01-11T08:47:32.678Z,3256.32
2023-01-11T08:48:32.773Z,3089.92
2023-01-11T08:49:32.901Z,2977.28
2023-01-11T08:50:33.031Z,2977.28
2023-01-11T08:51:33.135Z,3054.08
2023-01-11T08:52:33.238Z,3128.32
2023-01-11T08:53:33.334Z,3161.6
2023-01-11T08:54:33.455Z,3187.2
2023-01-11T08:55:33.586Z,3261.44
2023-01-11T08:56:33.698Z,3412.48
2023-01-11T08:57:33.845Z,3525.12
2023-01-11T08:58:33.939Z,3604.48
2023-01-11T08:59:34.045Z,3694.08
2023-01-11T09:00:34.201Z,3770.88
2023-01-11T09:01:34.402Z,3855.36
2023-01-11T09:02:34.510Z,3909.12
2023-01-11T09:03:34.560Z,3886.08
2023-01-11T09:04:34.712Z,3865.6
2023-01-11T09:05:34.814Z,3878.4
2023-01-11T09:06:34.952Z,3888.64
2023-01-11T09:07:35.121Z,3850.24
2023-01-11T09:08:35.226Z,3796.48
2023-01-11T09:09:35.363Z,3735.04
2023-01-11T09:10:35.512Z,3694.08
2023-01-11T09:11:35.669Z,3676.16
2023-01-11T09:12:35.760Z,3671.04
2023-01-11T09:13:35.875Z,3663.36
2023-01-11T09:14:35.974Z,3640.32
2023-01-11T09:15:36.075Z,3591.68
2023-01-11T09:16:36.179Z,3573.76
2023-01-11T09:17:36.272Z,3568.64
2023-01-11T09:18:36.381Z,3601.92
2023-01-11T09:19:36.537Z,3630.08
2023-01-11T09:20:36.630Z,3640.32
2023-01-11T09:21:36.732Z,3671.04
2023-01-11T09:22:36.833Z,3719.68
2023-01-11T09:23:36.975Z,3786.24
2023-01-11T09:24:37.129Z,3819.52
2023-01-11T09:25:37.255Z,3875.84
2023-01-11T09:26:37.404Z,3927.04
2023-01-11T09:27:37.444Z,3991.04
2023-01-11T09:28:37.532Z,4055.04
2023-01-11T09:29:37.897Z,4149.76
2023-01-11T09:30:37.790Z,4290.56
2023-01-11T09:31:37.985Z,4439.04
2023-01-11T09:32:38.007Z,4533.76
2023-01-11T09:33:38.096Z,4636.16
2023-01-11T09:34:38.211Z,4720.64
2023-01-11T09:35:38.343Z,4833.28
2023-01-11T09:36:38.446Z,4989.44
2023-01-11T09:37:38.549Z,5137.92
2023-01-11T09:38:38.711Z,5376
2023-01-11T09:39:38.811Z,5555.2
2023-01-11T09:40:38.909Z,5795.84
2023-01-11T09:41:39.003Z,5980.16
2023-01-11T09:42:39.182Z,6149.12
2023-01-11T09:43:39.314Z,6307.84
2023-01-11T09:44:39.466Z,6415.36
2023-01-11T09:45:39.557Z,6476.8
2023-01-11T09:46:39.730Z,6533.12
2023-01-11T09:47:39.810Z,6579.2
2023-01-11T09:48:39.964Z,6640.64
2023-01-11T09:49:40.068Z,6681.6
2023-01-11T09:50:40.213Z,6722.56
2023-01-11T09:51:40.328Z,6763.52
2023-01-11T09:52:40.469Z,6748.16
2023-01-11T09:53:40.578Z,6753.28
2023-01-11T09:54:40.677Z,6819.84
2023-01-11T09:55:40.772Z,6881.28
2023-01-11T09:56:40.928Z,6850.56
2023-01-11T09:57:41.121Z,6784
2023-01-11T09:58:41.182Z,6686.72
2023-01-11T09:59:41.331Z,6318.08
2023-01-11T10:00:41.481Z,5939.2
2023-01-11T10:01:41.531Z,5580.8
2023-01-11T10:02:41.684Z,5504
2023-01-11T10:03:41.794Z,5427.2
2023-01-11T10:04:41.989Z,5163.52
2023-01-11T10:05:42.112Z,4817.92
2023-01-11T10:06:42.240Z,4480
2023-01-11T10:07:42.387Z,4226.56
2023-01-11T10:18:21.689Z,5432.32
2023-01-11T10:19:04.486Z,5386.24
2023-01-11T10:19:43.912Z,5514.24
2023-01-11T10:20:44.043Z,5637.12
2023-01-11T10:21:44.191Z,5877.76
2023-01-11T10:22:44.279Z,6077.44
2023-01-11T10:23:44.412Z,6231.04
2023-01-11T10:24:44.579Z,6389.76
2023-01-11T10:25:44.683Z,6517.76
2023-01-11T10:26:44.867Z,6671.36
2023-01-11T10:27:45.017Z,6804.48
2023-01-11T10:28:45.079Z,6906.88
2023-01-11T10:29:45.176Z,7127.04
2023-01-11T10:30:45.288Z,7362.56
2023-01-11T10:31:45.549Z,7623.68
2023-01-11T10:32:45.615Z,7956.48
2023-01-11T10:33:45.726Z,8268.8
2023-01-11T10:34:45.840Z,8714.24
2023-01-11T10:35:46.005Z,9113.6
2023-01-11T10:36:46.091Z,9569.28
2023-01-11T10:37:46.183Z,10137.6
2023-01-11T10:38:46.332Z,10368
2023-01-11T10:39:46.392Z,10455.04
2023-01-11T10:40:46.571Z,10045.439
2023-01-11T10:41:46.656Z,9431.04
2023-01-11T10:42:46.747Z,9251.84
2023-01-11T10:43:46.904Z,9303.04
2023-01-11T10:44:46.997Z,9625.6
2023-01-11T10:45:47.156Z,10076.16
2023-01-11T10:46:47.207Z,11059.2
2023-01-11T10:47:47.303Z,11847.68
2023-01-11T10:48:47.450Z,11345.92
2023-01-11T10:49:47.574Z,11171.84
2023-01-11T10:50:47.714Z,11048.96
2023-01-11T10:51:47.807Z,11038.72
2023-01-11T10:52:47.999Z,11376.64
2023-01-11T10:53:48.014Z,11550.72
2023-01-11T10:54:48.624Z,10915.84
2023-01-11T10:55:48.278Z,10629.12
2023-01-11T10:57:01.636Z,10588.16
2023-01-11T10:57:59.340Z,10741.76
2023-01-11T10:58:48.880Z,10803.2
2023-01-11T10:59:48.971Z,11048.96
2023-01-11T11:00:49.174Z,11243.52
2023-01-11T11:01:49.310Z,11335.68
2023-01-11T11:02:49.348Z,11530.239
2023-01-11T11:03:49.430Z,11776
2023-01-11T11:04:49.530Z,12124.16
2023-01-11T11:05:49.682Z,12492.8
2023-01-11T11:06:49.826Z,12933.12
2023-01-11T11:07:49.935Z,14479.359
2023-01-11T11:08:50.058Z,24862.72
2023-01-11T11:09:50.159Z,24104.96
2023-01-11T11:10:50.249Z,16527.36
2023-01-11T11:11:50.338Z,15708.159
2023-01-11T11:12:50.435Z,15749.12
2023-01-11T11:13:50.593Z,15493.12
2023-01-11T11:14:50.697Z,15421.439
2023-01-11T11:15:50.782Z,15677.439
2023-01-11T11:16:50.945Z,16066.56
2023-01-11T11:17:51.033Z,15441.92
2023-01-11T11:18:51.189Z,15278.08
2023-01-11T11:19:51.337Z,14868.479
2023-01-11T11:20:51.496Z,14202.88
2023-01-11T11:21:51.605Z,13301.76
2023-01-11T11:22:51.711Z,12759.04
2023-01-11T11:23:51.815Z,11479.04
2023-01-11T11:24:51.903Z,11591.68
2023-01-11T11:25:52.086Z,12584.96
2023-01-11T11:26:52.202Z,16721.92
2023-01-11T11:27:52.271Z,16578.56
2023-01-11T11:28:52.437Z,14407.68
2023-01-11T11:29:52.509Z,14090.239
2023-01-11T11:30:52.673Z,13619.199
2023-01-11T11:31:52.789Z,12441.6
2023-01-11T11:32:52.942Z,11438.08
2023-01-11T11:33:53.079Z,11069.439
2023-01-11T11:34:53.164Z,10670.08
2023-01-11T11:35:53.272Z,10455.04
2023-01-11T11:36:53.374Z,10547.2
2023-01-11T11:37:53.519Z,10588.16
2023-01-11T11:38:54.350Z,10475.52
2023-01-11T11:39:53.737Z,10275.84
2023-01-11T11:40:53.873Z,10019.84
2023-01-11T11:41:54.041Z,9768.96
2023-01-11T11:42:54.131Z,9472
2023-01-11T11:43:54.236Z,9021.439
2023-01-11T11:44:54.333Z,8744.96
2023-01-11T11:45:54.508Z,8642.56
2023-01-11T11:46:54.540Z,8698.88
2023-01-11T11:47:54.649Z,8939.52
2023-01-11T11:48:54.793Z,9395.2
2023-01-11T11:49:54.884Z,9789.439
2023-01-11T11:50:55.194Z,9809.92
2023-01-11T11:51:55.367Z,9912.319
2023-01-11T11:52:55.455Z,10086.399
2023-01-11T11:53:55.639Z,10219.52
2023-01-11T11:54:55.710Z,10106.88
2023-01-11T11:55:55.809Z,9671.68
2023-01-11T11:56:55.932Z,9221.12
2023-01-11T11:57:56.051Z,9088
2023-01-11T11:58:56.207Z,8775.68
2023-01-11T11:59:56.355Z,8432.64
2023-01-11T12:00:56.526Z,8089.6
2023-01-11T12:01:56.713Z,7720.96
2023-01-11T12:02:56.762Z,7393.28
2023-01-11T12:03:56.860Z,7086.08
2023-01-11T12:04:56.997Z,6778.88
2023-01-11T12:05:57.071Z,6517.76
2023-01-11T12:06:57.162Z,6210.56
2023-01-11T12:07:57.319Z,5841.92
2023-01-11T12:08:57.418Z,5529.6
2023-01-11T12:09:57.542Z,5099.52
2023-01-11T12:10:57.625Z,4838.4
2023-01-11T12:11:57.778Z,4736
2023-01-11T12:12:57.880Z,4720.64
2023-01-11T12:13:58.024Z,4608
2023-01-11T12:14:58.182Z,4426.24
2023-01-11T12:15:58.344Z,4231.68
2023-01-11T12:16:58.439Z,4008.96
2023-01-11T12:17:58.592Z,3776
2023-01-11T12:18:58.693Z,3461.12
2023-01-11T12:19:58.802Z,3404.8
2023-01-11T12:20:58.888Z,3397.12
2023-01-11T12:21:58.987Z,3404.8
2023-01-11T12:22:59.084Z,3302.4
2023-01-11T12:23:59.197Z,3123.2
2023-01-11T12:24:59.295Z,3256.32
2023-01-11T12:25:59.447Z,3110.4
2023-01-11T12:26:59.633Z,2990.08
2023-01-11T12:27:59.718Z,2979.84
2023-01-11T12:28:59.857Z,2959.36
2023-01-11T12:30:00.023Z,2972.16
2023-01-11T12:31:00.254Z,2915.84
2023-01-11T12:32:00.255Z,2872.32
2023-01-11T12:33:00.354Z,2862.08
2023-01-11T12:34:00.515Z,2862.08
2023-01-11T12:35:00.734Z,2872.32
2023-01-11T12:36:03.131Z,2805.76
2023-01-11T12:37:00.962Z,2721.28
2023-01-11T12:38:01.085Z,2892.8
2023-01-11T12:39:01.239Z,2890.24
2023-01-11T12:40:01.367Z,2900.48
2023-01-11T12:41:01.469Z,2972.16
2023-01-11T12:42:01.595Z,2818.56
2023-01-11T12:43:01.679Z,2667.52
2023-01-11T12:44:01.773Z,2874.88
2023-01-11T12:45:01.874Z,2844.16
2023-01-11T12:46:02.030Z,2757.12
2023-01-11T12:47:02.132Z,2713.6
2023-01-11T12:48:02.255Z,2664.96
2023-01-11T12:49:02.323Z,2621.44
2023-01-11T12:50:02.438Z,2508.8
2023-01-11T12:51:02.599Z,2485.76
2023-01-11T12:52:02.738Z,2437.12
2023-01-11T12:53:02.854Z,2410.24
2023-01-11T12:54:02.944Z,2432
2023-01-11T12:55:03.101Z,2462.72
2023-01-11T12:56:03.192Z,2487.04
2023-01-11T12:57:03.353Z,2412.8